sensor_id;sensor_type;location;lat;lon;timestamp;P1;durP1;ratioP1;P2;durP2;ratioP2
46551;SDS011;32278;51.810;4.712;2022-10-16T00:00:32;3.47;;;1.13;;
46551;SDS011;32278;51.810;4.712;2022-10-16T00:02:59;3.17;;;1.48;;
46551;SDS011;32278;51.810;4.712;2022-10-16T00:05:25;4.88;;;1.67;;
46551;SDS011;32278;51.810;4.712;2022-10-16T00:07:51;3.47;;;1.60;;
46551;SDS011;32278;51.810;4.712;2022-10-16T00:10:16;2.92;;;1.50;;
46551;SDS011;32278;51.810;4.712;2022-10-16T00:12:42;5.65;;;1.55;;
46551;SDS011;32278;51.810;4.712;2022-10-16T00:15:07;6.55;;;1.73;;
46551;SDS011;32278;51.810;4.712;2022-10-16T00:17:34;5.00;;;1.45;;
46551;SDS011;32278;51.810;4.712;2022-10-16T00:19:59;6.40;;;1.30;;
46551;SDS011;32278;51.810;4.712;2022-10-16T00:22:25;6.57;;;1.30;;
46551;SDS011;32278;51.810;4.712;2022-10-16T00:24:50;3.28;;;1.45;;
46551;SDS011;32278;51.810;4.712;2022-10-16T00:27:16;5.00;;;1.45;;
46551;SDS011;32278;51.810;4.712;2022-10-16T00:29:42;2.45;;;1.35;;
46551;SDS011;32278;51.810;4.712;2022-10-16T00:32:08;2.72;;;1.27;;
46551;SDS011;32278;51.810;4.712;2022-10-16T00:34:34;5.95;;;1.48;;
46551;SDS011;32278;51.810;4.712;2022-10-16T00:37:00;2.67;;;1.35;;
46551;SDS011;32278;51.810;4.712;2022-10-16T00:39:25;3.63;;;1.50;;
46551;SDS011;32278;51.810;4.712;2022-10-16T00:41:51;6.05;;;1.48;;
46551;SDS011;32278;51.810;4.712;2022-10-16T00:47:37;3.45;;;1.58;;
46551;SDS011;32278;51.810;4.712;2022-10-16T00:52:54;6.07;;;1.40;;
46551;SDS011;32278;51.810;4.712;2022-10-16T00:55:20;4.40;;;1.48;;
46551;SDS011;32278;51.810;4.712;2022-10-16T00:57:47;2.95;;;1.50;;
46551;SDS011;32278;51.810;4.712;2022-10-16T01:00:15;6.40;;;1.25;;
46551;SDS011;32278;51.810;4.712;2022-10-16T01:02:51;5.47;;;1.60;;
46551;SDS011;32278;51.810;4.712;2022-10-16T01:05:39;3.67;;;1.88;;
46551;SDS011;32278;51.810;4.712;2022-10-16T01:08:15;3.10;;;1.70;;
46551;SDS011;32278;51.810;4.712;2022-10-16T01:11:01;4.38;;;1.88;;
46551;SDS011;32278;51.810;4.712;2022-10-16T01:13:53;3.45;;;1.65;;
46551;SDS011;32278;51.810;4.712;2022-10-16T01:16:32;3.60;;;1.75;;
46551;SDS011;32278;51.810;4.712;2022-10-16T01:21:45;5.68;;;1.85;;
46551;SDS011;32278;51.810;4.712;2022-10-16T01:24:25;3.88;;;1.80;;
46551;SDS011;32278;51.810;4.712;2022-10-16T01:27:25;4.25;;;2.28;;
46551;SDS011;32278;51.810;4.712;2022-10-16T01:32:39;4.32;;;1.70;;
46551;SDS011;32278;51.810;4.712;2022-10-16T01:35:21;5.05;;;2.55;;
46551;SDS011;32278;51.810;4.712;2022-10-16T01:37:58;4.13;;;2.30;;
46551;SDS011;32278;51.810;4.712;2022-10-16T01:40:36;1.83;;;1.63;;
46551;SDS011;32278;51.810;4.712;2022-10-16T01:43:20;5.07;;;2.15;;
46551;SDS011;32278;51.810;4.712;2022-10-16T01:45:50;7.47;;;1.83;;
46551;SDS011;32278;51.810;4.712;2022-10-16T01:48:18;5.50;;;1.48;;
46551;SDS011;32278;51.810;4.712;2022-10-16T01:50:49;1.80;;;1.50;;
46551;SDS011;32278;51.810;4.712;2022-10-16T01:53:20;6.00;;;2.60;;
46551;SDS011;32278;51.810;4.712;2022-10-16T01:55:49;4.47;;;2.08;;
46551;SDS011;32278;51.810;4.712;2022-10-16T01:58:17;3.35;;;1.92;;
46551;SDS011;32278;51.810;4.712;2022-10-16T02:00:43;4.20;;;2.20;;
46551;SDS011;32278;51.810;4.712;2022-10-16T02:03:11;4.78;;;1.73;;
46551;SDS011;32278;51.810;4.712;2022-10-16T02:05:50;2.88;;;2.05;;
46551;SDS011;32278;51.810;4.712;2022-10-16T02:08:19;2.80;;;2.03;;
46551;SDS011;32278;51.810;4.712;2022-10-16T02:10:46;5.30;;;2.13;;
46551;SDS011;32278;51.810;4.712;2022-10-16T02:13:13;4.88;;;2.00;;
46551;SDS011;32278;51.810;4.712;2022-10-16T02:15:55;6.45;;;2.08;;
46551;SDS011;32278;51.810;4.712;2022-10-16T02:18:21;2.45;;;1.70;;
46551;SDS011;32278;51.810;4.712;2022-10-16T02:23:29;4.32;;;2.03;;
46551;SDS011;32278;51.810;4.712;2022-10-16T02:26:07;2.22;;;1.23;;
46551;SDS011;32278;51.810;4.712;2022-10-16T02:28:40;3.70;;;1.55;;
46551;SDS011;32278;51.810;4.712;2022-10-16T02:31:11;3.92;;;1.80;;
46551;SDS011;32278;51.810;4.712;2022-10-16T02:33:40;4.40;;;1.73;;
46551;SDS011;32278;51.810;4.712;2022-10-16T02:36:08;6.03;;;2.00;;
46551;SDS011;32278;51.810;4.712;2022-10-16T02:38:34;2.05;;;1.38;;
46551;SDS011;32278;51.810;4.712;2022-10-16T02:41:00;4.85;;;2.03;;
46551;SDS011;32278;51.810;4.712;2022-10-16T02:43:25;3.22;;;1.45;;
46551;SDS011;32278;51.810;4.712;2022-10-16T02:45:51;4.63;;;1.67;;
46551;SDS011;32278;51.810;4.712;2022-10-16T02:48:17;2.55;;;1.65;;
46551;SDS011;32278;51.810;4.712;2022-10-16T02:50:43;1.85;;;1.20;;
46551;SDS011;32278;51.810;4.712;2022-10-16T02:53:08;3.53;;;1.70;;
46551;SDS011;32278;51.810;4.712;2022-10-16T02:55:34;2.67;;;1.65;;
46551;SDS011;32278;51.810;4.712;2022-10-16T02:57:59;1.38;;;1.27;;
46551;SDS011;32278;51.810;4.712;2022-10-16T03:00:25;3.10;;;1.27;;
46551;SDS011;32278;51.810;4.712;2022-10-16T03:02:50;2.58;;;1.27;;
46551;SDS011;32278;51.810;4.712;2022-10-16T03:05:16;1.40;;;1.30;;
46551;SDS011;32278;51.810;4.712;2022-10-16T03:07:42;3.45;;;1.00;;
46551;SDS011;32278;51.810;4.712;2022-10-16T03:10:08;1.10;;;0.93;;
46551;SDS011;32278;51.810;4.712;2022-10-16T03:12:33;2.65;;;1.10;;
46551;SDS011;32278;51.810;4.712;2022-10-16T03:14:59;1.45;;;1.00;;
46551;SDS011;32278;51.810;4.712;2022-10-16T03:17:25;1.92;;;1.08;;
46551;SDS011;32278;51.810;4.712;2022-10-16T03:19:51;2.00;;;1.10;;
46551;SDS011;32278;51.810;4.712;2022-10-16T03:22:16;0.88;;;0.80;;
46551;SDS011;32278;51.810;4.712;2022-10-16T03:24:42;1.30;;;1.20;;
46551;SDS011;32278;51.810;4.712;2022-10-16T03:27:08;1.35;;;1.00;;
46551;SDS011;32278;51.810;4.712;2022-10-16T03:29:33;4.03;;;1.10;;
46551;SDS011;32278;51.810;4.712;2022-10-16T03:31:59;1.33;;;1.15;;
46551;SDS011;32278;51.810;4.712;2022-10-16T03:34:25;1.25;;;0.90;;
46551;SDS011;32278;51.810;4.712;2022-10-16T03:36:51;6.28;;;1.30;;
46551;SDS011;32278;51.810;4.712;2022-10-16T03:39:17;5.65;;;1.20;;
46551;SDS011;32278;51.810;4.712;2022-10-16T03:41:43;1.98;;;1.10;;
46551;SDS011;32278;51.810;4.712;2022-10-16T03:44:09;1.00;;;0.85;;
46551;SDS011;32278;51.810;4.712;2022-10-16T03:46:34;3.42;;;1.13;;
46551;SDS011;32278;51.810;4.712;2022-10-16T03:49:00;2.72;;;1.15;;
46551;SDS011;32278;51.810;4.712;2022-10-16T03:51:25;1.75;;;1.02;;
46551;SDS011;32278;51.810;4.712;2022-10-16T03:53:51;2.22;;;1.10;;
46551;SDS011;32278;51.810;4.712;2022-10-16T03:56:17;8.35;;;1.55;;
46551;SDS011;32278;51.810;4.712;2022-10-16T03:58:42;2.35;;;1.30;;
46551;SDS011;32278;51.810;4.712;2022-10-16T04:01:08;1.63;;;1.00;;
46551;SDS011;32278;51.810;4.712;2022-10-16T04:03:34;3.25;;;1.15;;
46551;SDS011;32278;51.810;4.712;2022-10-16T04:05:59;3.45;;;1.25;;
46551;SDS011;32278;51.810;4.712;2022-10-16T04:08:25;1.60;;;1.33;;
46551;SDS011;32278;51.810;4.712;2022-10-16T04:10:50;5.30;;;1.00;;
46551;SDS011;32278;51.810;4.712;2022-10-16T04:13:16;9.85;;;1.65;;
46551;SDS011;32278;51.810;4.712;2022-10-16T04:15:42;2.85;;;1.00;;
46551;SDS011;32278;51.810;4.712;2022-10-16T04:18:09;2.03;;;1.40;;
46551;SDS011;32278;51.810;4.712;2022-10-16T04:20:34;3.10;;;1.83;;
46551;SDS011;32278;51.810;4.712;2022-10-16T04:23:00;1.80;;;1.00;;
46551;SDS011;32278;51.810;4.712;2022-10-16T04:25:26;2.95;;;1.05;;
46551;SDS011;32278;51.810;4.712;2022-10-16T04:27:54;3.88;;;1.20;;
46551;SDS011;32278;51.810;4.712;2022-10-16T04:30:20;2.92;;;1.42;;
46551;SDS011;32278;51.810;4.712;2022-10-16T04:32:50;6.78;;;1.48;;
46551;SDS011;32278;51.810;4.712;2022-10-16T04:35:17;4.60;;;1.48;;
46551;SDS011;32278;51.810;4.712;2022-10-16T04:37:44;3.72;;;1.50;;
46551;SDS011;32278;51.810;4.712;2022-10-16T04:40:10;2.38;;;1.30;;
46551;SDS011;32278;51.810;4.712;2022-10-16T04:42:35;3.47;;;1.77;;
46551;SDS011;32278;51.810;4.712;2022-10-16T04:45:01;1.75;;;1.30;;
46551;SDS011;32278;51.810;4.712;2022-10-16T04:47:27;5.25;;;1.27;;
46551;SDS011;32278;51.810;4.712;2022-10-16T04:49:53;3.13;;;1.48;;
46551;SDS011;32278;51.810;4.712;2022-10-16T04:52:19;4.30;;;1.42;;
46551;SDS011;32278;51.810;4.712;2022-10-16T04:54:46;2.58;;;1.40;;
46551;SDS011;32278;51.810;4.712;2022-10-16T04:57:12;3.67;;;1.83;;
46551;SDS011;32278;51.810;4.712;2022-10-16T04:59:37;2.08;;;1.67;;
46551;SDS011;32278;51.810;4.712;2022-10-16T05:02:03;5.00;;;1.77;;
46551;SDS011;32278;51.810;4.712;2022-10-16T05:04:29;3.85;;;1.38;;
46551;SDS011;32278;51.810;4.712;2022-10-16T05:06:54;3.13;;;1.33;;
46551;SDS011;32278;51.810;4.712;2022-10-16T05:09:20;5.47;;;1.30;;
46551;SDS011;32278;51.810;4.712;2022-10-16T05:11:45;2.05;;;1.35;;
46551;SDS011;32278;51.810;4.712;2022-10-16T05:14:11;2.25;;;1.50;;
46551;SDS011;32278;51.810;4.712;2022-10-16T05:16:37;3.13;;;1.65;;
46551;SDS011;32278;51.810;4.712;2022-10-16T05:19:02;3.45;;;1.52;;
46551;SDS011;32278;51.810;4.712;2022-10-16T05:21:28;4.68;;;1.67;;
46551;SDS011;32278;51.810;4.712;2022-10-16T05:23:54;4.45;;;1.60;;
46551;SDS011;32278;51.810;4.712;2022-10-16T05:26:20;8.52;;;1.40;;
46551;SDS011;32278;51.810;4.712;2022-10-16T05:28:46;4.90;;;1.70;;
46551;SDS011;32278;51.810;4.712;2022-10-16T05:31:11;3.33;;;1.33;;
46551;SDS011;32278;51.810;4.712;2022-10-16T05:33:37;4.22;;;1.30;;
46551;SDS011;32278;51.810;4.712;2022-10-16T05:36:03;4.53;;;1.75;;
46551;SDS011;32278;51.810;4.712;2022-10-16T05:38:31;3.33;;;1.48;;
46551;SDS011;32278;51.810;4.712;2022-10-16T05:40:56;1.50;;;1.38;;
46551;SDS011;32278;51.810;4.712;2022-10-16T05:43:23;8.18;;;1.58;;
46551;SDS011;32278;51.810;4.712;2022-10-16T05:45:59;3.08;;;1.60;;
46551;SDS011;32278;51.810;4.712;2022-10-16T05:48:26;4.72;;;1.67;;
46551;SDS011;32278;51.810;4.712;2022-10-16T05:50:59;3.67;;;1.60;;
46551;SDS011;32278;51.810;4.712;2022-10-16T05:53:26;2.22;;;1.38;;
46551;SDS011;32278;51.810;4.712;2022-10-16T05:55:53;4.45;;;1.60;;
46551;SDS011;32278;51.810;4.712;2022-10-16T05:58:19;5.35;;;1.83;;
46551;SDS011;32278;51.810;4.712;2022-10-16T06:00:52;8.75;;;1.55;;
46551;SDS011;32278;51.810;4.712;2022-10-16T06:03:22;1.80;;;1.42;;
46551;SDS011;32278;51.810;4.712;2022-10-16T06:05:47;2.15;;;1.30;;
46551;SDS011;32278;51.810;4.712;2022-10-16T06:08:13;2.55;;;1.25;;
46551;SDS011;32278;51.810;4.712;2022-10-16T06:10:39;2.72;;;1.38;;
46551;SDS011;32278;51.810;4.712;2022-10-16T06:13:04;5.53;;;1.35;;
46551;SDS011;32278;51.810;4.712;2022-10-16T06:15:30;5.50;;;1.48;;
46551;SDS011;32278;51.810;4.712;2022-10-16T06:17:55;3.40;;;1.30;;
46551;SDS011;32278;51.810;4.712;2022-10-16T06:20:21;3.60;;;1.25;;
46551;SDS011;32278;51.810;4.712;2022-10-16T06:22:47;5.80;;;1.50;;
46551;SDS011;32278;51.810;4.712;2022-10-16T06:25:12;2.25;;;1.92;;
46551;SDS011;32278;51.810;4.712;2022-10-16T06:27:41;5.13;;;1.42;;
46551;SDS011;32278;51.810;4.712;2022-10-16T06:30:07;3.83;;;1.40;;
46551;SDS011;32278;51.810;4.712;2022-10-16T06:32:33;5.18;;;1.77;;
46551;SDS011;32278;51.810;4.712;2022-10-16T06:34:58;1.70;;;1.42;;
46551;SDS011;32278;51.810;4.712;2022-10-16T06:37:24;6.63;;;1.50;;
46551;SDS011;32278;51.810;4.712;2022-10-16T06:39:50;5.07;;;1.80;;
46551;SDS011;32278;51.810;4.712;2022-10-16T06:42:17;4.55;;;1.50;;
46551;SDS011;32278;51.810;4.712;2022-10-16T06:44:43;6.68;;;1.95;;
46551;SDS011;32278;51.810;4.712;2022-10-16T06:47:09;2.47;;;1.45;;
46551;SDS011;32278;51.810;4.712;2022-10-16T06:49:35;3.72;;;2.03;;
46551;SDS011;32278;51.810;4.712;2022-10-16T06:52:00;4.85;;;1.58;;
46551;SDS011;32278;51.810;4.712;2022-10-16T06:54:26;3.72;;;1.73;;
46551;SDS011;32278;51.810;4.712;2022-10-16T06:56:53;5.75;;;1.95;;
46551;SDS011;32278;51.810;4.712;2022-10-16T06:59:19;3.33;;;1.45;;
46551;SDS011;32278;51.810;4.712;2022-10-16T07:01:46;4.32;;;1.50;;
46551;SDS011;32278;51.810;4.712;2022-10-16T07:04:12;2.53;;;1.50;;
46551;SDS011;32278;51.810;4.712;2022-10-16T07:06:38;4.18;;;1.73;;
46551;SDS011;32278;51.810;4.712;2022-10-16T07:09:05;2.78;;;1.63;;
46551;SDS011;32278;51.810;4.712;2022-10-16T07:11:32;6.25;;;1.98;;
46551;SDS011;32278;51.810;4.712;2022-10-16T07:13:57;4.88;;;2.00;;
46551;SDS011;32278;51.810;4.712;2022-10-16T07:16:27;3.33;;;1.95;;
46551;SDS011;32278;51.810;4.712;2022-10-16T07:18:54;5.13;;;1.50;;
46551;SDS011;32278;51.810;4.712;2022-10-16T07:21:23;2.75;;;1.63;;
46551;SDS011;32278;51.810;4.712;2022-10-16T07:23:57;6.78;;;1.45;;
46551;SDS011;32278;51.810;4.712;2022-10-16T07:26:24;2.92;;;1.88;;
46551;SDS011;32278;51.810;4.712;2022-10-16T07:28:51;3.72;;;1.70;;
46551;SDS011;32278;51.810;4.712;2022-10-16T07:31:17;1.52;;;1.42;;
46551;SDS011;32278;51.810;4.712;2022-10-16T07:33:45;6.10;;;1.75;;
46551;SDS011;32278;51.810;4.712;2022-10-16T07:36:12;4.28;;;1.60;;
46551;SDS011;32278;51.810;4.712;2022-10-16T07:38:39;5.65;;;1.45;;
46551;SDS011;32278;51.810;4.712;2022-10-16T07:41:05;2.17;;;1.55;;
46551;SDS011;32278;51.810;4.712;2022-10-16T07:43:32;8.00;;;1.60;;
46551;SDS011;32278;51.810;4.712;2022-10-16T07:45:58;3.40;;;1.35;;
46551;SDS011;32278;51.810;4.712;2022-10-16T07:48:27;7.10;;;1.65;;
46551;SDS011;32278;51.810;4.712;2022-10-16T07:51:04;5.28;;;1.60;;
46551;SDS011;32278;51.810;4.712;2022-10-16T07:53:31;6.85;;;1.73;;
46551;SDS011;32278;51.810;4.712;2022-10-16T07:55:58;2.65;;;1.38;;
46551;SDS011;32278;51.810;4.712;2022-10-16T07:58:28;3.70;;;1.20;;
46551;SDS011;32278;51.810;4.712;2022-10-16T08:00:54;5.78;;;1.88;;
46551;SDS011;32278;51.810;4.712;2022-10-16T08:03:20;3.35;;;1.70;;
46551;SDS011;32278;51.810;4.712;2022-10-16T08:05:46;3.97;;;1.30;;
46551;SDS011;32278;51.810;4.712;2022-10-16T08:08:12;3.55;;;1.40;;
46551;SDS011;32278;51.810;4.712;2022-10-16T08:10:39;6.20;;;1.83;;
46551;SDS011;32278;51.810;4.712;2022-10-16T08:13:05;3.70;;;1.42;;
46551;SDS011;32278;51.810;4.712;2022-10-16T08:15:31;2.97;;;1.30;;
46551;SDS011;32278;51.810;4.712;2022-10-16T08:17:57;5.68;;;1.60;;
46551;SDS011;32278;51.810;4.712;2022-10-16T08:20:24;3.95;;;1.63;;
46551;SDS011;32278;51.810;4.712;2022-10-16T08:22:51;3.85;;;1.75;;
46551;SDS011;32278;51.810;4.712;2022-10-16T08:25:16;2.40;;;1.30;;
46551;SDS011;32278;51.810;4.712;2022-10-16T08:27:42;3.47;;;1.27;;
46551;SDS011;32278;51.810;4.712;2022-10-16T08:30:09;4.15;;;1.65;;
46551;SDS011;32278;51.810;4.712;2022-10-16T08:32:35;6.50;;;1.45;;
46551;SDS011;32278;51.810;4.712;2022-10-16T08:35:01;7.45;;;2.22;;
46551;SDS011;32278;51.810;4.712;2022-10-16T08:37:30;2.90;;;1.50;;
46551;SDS011;32278;51.810;4.712;2022-10-16T08:39:57;5.07;;;1.35;;
46551;SDS011;32278;51.810;4.712;2022-10-16T08:50:36;11.32;;;1.75;;
46551;SDS011;32278;51.810;4.712;2022-10-16T08:53:03;4.53;;;1.70;;
46551;SDS011;32278;51.810;4.712;2022-10-16T08:58:15;2.97;;;1.05;;
46551;SDS011;32278;51.810;4.712;2022-10-16T09:00:44;6.43;;;1.30;;
46551;SDS011;32278;51.810;4.712;2022-10-16T09:03:17;6.47;;;1.40;;
46551;SDS011;32278;51.810;4.712;2022-10-16T09:05:52;3.38;;;1.30;;
46551;SDS011;32278;51.810;4.712;2022-10-16T09:16:34;7.47;;;1.60;;
46551;SDS011;32278;51.810;4.712;2022-10-16T09:19:15;7.20;;;1.67;;
46551;SDS011;32278;51.810;4.712;2022-10-16T09:21:50;4.57;;;1.35;;
46551;SDS011;32278;51.810;4.712;2022-10-16T09:24:19;6.57;;;1.60;;
46551;SDS011;32278;51.810;4.712;2022-10-16T09:26:47;8.07;;;1.60;;
46551;SDS011;32278;51.810;4.712;2022-10-16T09:29:13;9.30;;;1.60;;
46551;SDS011;32278;51.810;4.712;2022-10-16T09:31:41;8.65;;;1.30;;
46551;SDS011;32278;51.810;4.712;2022-10-16T09:34:17;7.57;;;2.05;;
46551;SDS011;32278;51.810;4.712;2022-10-16T09:36:55;7.13;;;1.30;;
46551;SDS011;32278;51.810;4.712;2022-10-16T09:39:23;7.57;;;1.50;;
46551;SDS011;32278;51.810;4.712;2022-10-16T09:41:49;11.48;;;1.67;;
46551;SDS011;32278;51.810;4.712;2022-10-16T09:44:19;7.78;;;1.80;;
46551;SDS011;32278;51.810;4.712;2022-10-16T09:47:00;7.63;;;1.60;;
46551;SDS011;32278;51.810;4.712;2022-10-16T09:49:26;9.25;;;2.03;;
46551;SDS011;32278;51.810;4.712;2022-10-16T09:52:02;14.55;;;2.83;;
46551;SDS011;32278;51.810;4.712;2022-10-16T09:54:48;6.07;;;1.90;;
46551;SDS011;32278;51.810;4.712;2022-10-16T09:57:19;5.10;;;2.15;;
46551;SDS011;32278;51.810;4.712;2022-10-16T09:59:55;11.40;;;1.90;;
46551;SDS011;32278;51.810;4.712;2022-10-16T10:04:54;6.93;;;1.90;;
46551;SDS011;32278;51.810;4.712;2022-10-16T10:07:30;8.38;;;1.75;;
46551;SDS011;32278;51.810;4.712;2022-10-16T10:09:59;8.10;;;1.80;;
46551;SDS011;32278;51.810;4.712;2022-10-16T10:12:29;8.30;;;2.45;;
46551;SDS011;32278;51.810;4.712;2022-10-16T10:15:04;10.80;;;2.20;;
46551;SDS011;32278;51.810;4.712;2022-10-16T10:17:44;5.97;;;1.50;;
46551;SDS011;32278;51.810;4.712;2022-10-16T10:22:41;7.22;;;1.40;;
46551;SDS011;32278;51.810;4.712;2022-10-16T10:25:14;9.93;;;1.77;;
46551;SDS011;32278;51.810;4.712;2022-10-16T10:35:56;9.98;;;1.65;;
46551;SDS011;32278;51.810;4.712;2022-10-16T10:38:39;9.95;;;2.00;;
46551;SDS011;32278;51.810;4.712;2022-10-16T10:46:42;7.40;;;1.73;;
46551;SDS011;32278;51.810;4.712;2022-10-16T10:57:43;14.32;;;2.10;;
46551;SDS011;32278;51.810;4.712;2022-10-16T11:06:07;8.23;;;1.60;;
46551;SDS011;32278;51.810;4.712;2022-10-16T11:08:53;8.98;;;1.77;;
46551;SDS011;32278;51.810;4.712;2022-10-16T11:17:19;19.85;;;2.35;;
46551;SDS011;32278;51.810;4.712;2022-10-16T11:19:54;15.23;;;1.80;;
46551;SDS011;32278;51.810;4.712;2022-10-16T11:22:34;3.75;;;1.67;;
46551;SDS011;32278;51.810;4.712;2022-10-16T11:25:13;9.27;;;2.50;;
46551;SDS011;32278;51.810;4.712;2022-10-16T11:27:50;8.10;;;1.80;;
46551;SDS011;32278;51.810;4.712;2022-10-16T11:30:27;8.07;;;1.60;;
46551;SDS011;32278;51.810;4.712;2022-10-16T11:40:51;11.40;;;1.73;;
46551;SDS011;32278;51.810;4.712;2022-10-16T11:43:24;11.80;;;2.40;;
46551;SDS011;32278;51.810;4.712;2022-10-16T11:46:04;3.83;;;1.63;;
46551;SDS011;32278;51.810;4.712;2022-10-16T11:48:57;7.07;;;1.30;;
46551;SDS011;32278;51.810;4.712;2022-10-16T11:51:42;9.35;;;1.45;;
46551;SDS011;32278;51.810;4.712;2022-10-16T11:57:08;8.40;;;1.90;;
46551;SDS011;32278;51.810;4.712;2022-10-16T11:59:43;5.25;;;1.50;;
46551;SDS011;32278;51.810;4.712;2022-10-16T12:02:29;11.20;;;2.15;;
46551;SDS011;32278;51.810;4.712;2022-10-16T12:07:50;9.93;;;1.80;;
46551;SDS011;32278;51.810;4.712;2022-10-16T12:10:41;7.13;;;1.63;;
46551;SDS011;32278;51.810;4.712;2022-10-16T12:18:39;5.70;;;1.30;;
46551;SDS011;32278;51.810;4.712;2022-10-16T12:21:06;9.63;;;1.60;;
46551;SDS011;32278;51.810;4.712;2022-10-16T12:23:37;16.25;;;3.05;;
46551;SDS011;32278;51.810;4.712;2022-10-16T12:26:11;7.95;;;1.40;;
46551;SDS011;32278;51.810;4.712;2022-10-16T12:28:36;9.95;;;2.03;;
46551;SDS011;32278;51.810;4.712;2022-10-16T12:31:07;11.25;;;2.50;;
46551;SDS011;32278;51.810;4.712;2022-10-16T12:33:40;7.63;;;2.67;;
46551;SDS011;32278;51.810;4.712;2022-10-16T12:36:34;8.20;;;1.52;;
46551;SDS011;32278;51.810;4.712;2022-10-16T12:39:00;11.15;;;1.70;;
46551;SDS011;32278;51.810;4.712;2022-10-16T12:41:30;8.98;;;2.00;;
46551;SDS011;32278;51.810;4.712;2022-10-16T12:43:58;10.07;;;2.20;;
46551;SDS011;32278;51.810;4.712;2022-10-16T12:51:39;7.40;;;1.58;;
46551;SDS011;32278;51.810;4.712;2022-10-16T12:54:12;6.25;;;1.52;;
46551;SDS011;32278;51.810;4.712;2022-10-16T12:59:44;11.68;;;1.70;;
46551;SDS011;32278;51.810;4.712;2022-10-16T13:07:53;8.63;;;1.80;;
46551;SDS011;32278;51.810;4.712;2022-10-16T13:10:36;7.20;;;1.67;;
46551;SDS011;32278;51.810;4.712;2022-10-16T13:13:20;7.25;;;1.65;;
46551;SDS011;32278;51.810;4.712;2022-10-16T13:18:53;21.23;;;2.28;;
46551;SDS011;32278;51.810;4.712;2022-10-16T13:29:48;7.88;;;1.95;;
46551;SDS011;32278;51.810;4.712;2022-10-16T13:32:20;9.98;;;2.63;;
46551;SDS011;32278;51.810;4.712;2022-10-16T13:34:48;11.07;;;2.92;;
46551;SDS011;32278;51.810;4.712;2022-10-16T13:37:16;6.22;;;1.58;;
46551;SDS011;32278;51.810;4.712;2022-10-16T13:42:13;10.90;;;2.00;;
46551;SDS011;32278;51.810;4.712;2022-10-16T13:44:47;9.15;;;1.52;;
46551;SDS011;32278;51.810;4.712;2022-10-16T13:49:41;8.45;;;1.45;;
46551;SDS011;32278;51.810;4.712;2022-10-16T13:52:15;10.30;;;2.42;;
46551;SDS011;32278;51.810;4.712;2022-10-16T13:54:43;4.38;;;1.42;;
46551;SDS011;32278;51.810;4.712;2022-10-16T13:57:11;12.68;;;2.03;;
46551;SDS011;32278;51.810;4.712;2022-10-16T13:59:41;7.13;;;1.77;;
46551;SDS011;32278;51.810;4.712;2022-10-16T14:07:26;9.77;;;2.13;;
46551;SDS011;32278;51.810;4.712;2022-10-16T14:09:54;9.70;;;1.77;;
46551;SDS011;32278;51.810;4.712;2022-10-16T14:12:22;6.28;;;1.67;;
46551;SDS011;32278;51.810;4.712;2022-10-16T14:14:49;5.18;;;1.60;;
46551;SDS011;32278;51.810;4.712;2022-10-16T14:17:24;15.35;;;2.33;;
46551;SDS011;32278;51.810;4.712;2022-10-16T14:19:53;9.95;;;1.85;;
46551;SDS011;32278;51.810;4.712;2022-10-16T14:30:49;8.43;;;2.33;;
46551;SDS011;32278;51.810;4.712;2022-10-16T14:33:22;11.85;;;2.50;;
46551;SDS011;32278;51.810;4.712;2022-10-16T14:36:33;12.82;;;2.42;;
46551;SDS011;32278;51.810;4.712;2022-10-16T14:39:05;8.68;;;1.88;;
46551;SDS011;32278;51.810;4.712;2022-10-16T14:41:43;10.93;;;1.92;;
46551;SDS011;32278;51.810;4.712;2022-10-16T14:44:12;8.73;;;2.05;;
46551;SDS011;32278;51.810;4.712;2022-10-16T14:46:39;12.18;;;1.92;;
46551;SDS011;32278;51.810;4.712;2022-10-16T14:51:35;9.98;;;1.75;;
46551;SDS011;32278;51.810;4.712;2022-10-16T14:54:09;9.65;;;1.95;;
46551;SDS011;32278;51.810;4.712;2022-10-16T14:56:47;11.45;;;2.20;;
46551;SDS011;32278;51.810;4.712;2022-10-16T14:59:22;11.23;;;2.17;;
46551;SDS011;32278;51.810;4.712;2022-10-16T15:02:13;10.55;;;2.00;;
46551;SDS011;32278;51.810;4.712;2022-10-16T15:04:45;10.00;;;1.58;;
46551;SDS011;32278;51.810;4.712;2022-10-16T15:07:11;7.93;;;1.98;;
46551;SDS011;32278;51.810;4.712;2022-10-16T15:09:37;10.80;;;1.95;;
46551;SDS011;32278;51.810;4.712;2022-10-16T15:12:03;5.80;;;1.60;;
46551;SDS011;32278;51.810;4.712;2022-10-16T15:14:29;5.43;;;1.70;;
46551;SDS011;32278;51.810;4.712;2022-10-16T15:16:54;8.50;;;2.10;;
46551;SDS011;32278;51.810;4.712;2022-10-16T15:19:20;8.88;;;2.47;;
46551;SDS011;32278;51.810;4.712;2022-10-16T15:21:45;12.18;;;2.15;;
46551;SDS011;32278;51.810;4.712;2022-10-16T15:24:12;11.13;;;2.28;;
46551;SDS011;32278;51.810;4.712;2022-10-16T15:26:38;5.28;;;1.35;;
46551;SDS011;32278;51.810;4.712;2022-10-16T15:29:04;13.57;;;2.50;;
46551;SDS011;32278;51.810;4.712;2022-10-16T15:31:30;14.60;;;3.00;;
46551;SDS011;32278;51.810;4.712;2022-10-16T15:33:56;11.88;;;3.22;;
46551;SDS011;32278;51.810;4.712;2022-10-16T15:36:27;10.05;;;2.95;;
46551;SDS011;32278;51.810;4.712;2022-10-16T15:38:54;11.43;;;3.65;;
46551;SDS011;32278;51.810;4.712;2022-10-16T15:41:21;12.27;;;1.73;;
46551;SDS011;32278;51.810;4.712;2022-10-16T15:43:50;9.38;;;2.08;;
46551;SDS011;32278;51.810;4.712;2022-10-16T15:46:20;5.38;;;1.63;;
46551;SDS011;32278;51.810;4.712;2022-10-16T15:48:47;13.05;;;2.17;;
46551;SDS011;32278;51.810;4.712;2022-10-16T15:51:14;11.27;;;3.10;;
46551;SDS011;32278;51.810;4.712;2022-10-16T15:53:40;11.57;;;3.03;;
46551;SDS011;32278;51.810;4.712;2022-10-16T15:56:06;19.10;;;3.28;;
46551;SDS011;32278;51.810;4.712;2022-10-16T15:58:33;9.00;;;2.78;;
46551;SDS011;32278;51.810;4.712;2022-10-16T16:00:59;5.90;;;2.45;;
46551;SDS011;32278;51.810;4.712;2022-10-16T16:03:26;12.70;;;3.17;;
46551;SDS011;32278;51.810;4.712;2022-10-16T16:05:53;11.32;;;2.30;;
46551;SDS011;32278;51.810;4.712;2022-10-16T16:08:19;9.95;;;2.50;;
46551;SDS011;32278;51.810;4.712;2022-10-16T16:10:44;13.13;;;2.17;;
46551;SDS011;32278;51.810;4.712;2022-10-16T16:13:10;6.10;;;1.90;;
46551;SDS011;32278;51.810;4.712;2022-10-16T16:15:39;14.73;;;2.53;;
46551;SDS011;32278;51.810;4.712;2022-10-16T16:18:05;10.18;;;1.92;;
46551;SDS011;32278;51.810;4.712;2022-10-16T16:20:31;14.68;;;2.20;;
46551;SDS011;32278;51.810;4.712;2022-10-16T16:22:57;6.53;;;1.80;;
46551;SDS011;32278;51.810;4.712;2022-10-16T16:25:23;10.50;;;1.67;;
46551;SDS011;32278;51.810;4.712;2022-10-16T16:27:48;7.97;;;1.58;;
46551;SDS011;32278;51.810;4.712;2022-10-16T16:30:14;12.75;;;3.10;;
46551;SDS011;32278;51.810;4.712;2022-10-16T16:32:40;14.07;;;3.25;;
46551;SDS011;32278;51.810;4.712;2022-10-16T16:35:05;16.52;;;2.38;;
46551;SDS011;32278;51.810;4.712;2022-10-16T16:37:31;14.68;;;2.60;;
46551;SDS011;32278;51.810;4.712;2022-10-16T16:39:57;8.63;;;2.22;;
46551;SDS011;32278;51.810;4.712;2022-10-16T16:42:26;15.98;;;2.28;;
46551;SDS011;32278;51.810;4.712;2022-10-16T16:44:52;6.47;;;1.83;;
46551;SDS011;32278;51.810;4.712;2022-10-16T16:47:18;8.77;;;2.00;;
46551;SDS011;32278;51.810;4.712;2022-10-16T16:49:44;7.10;;;2.20;;
46551;SDS011;32278;51.810;4.712;2022-10-16T16:52:11;11.38;;;3.10;;
46551;SDS011;32278;51.810;4.712;2022-10-16T16:54:37;12.50;;;2.75;;
46551;SDS011;32278;51.810;4.712;2022-10-16T16:57:02;6.78;;;2.03;;
46551;SDS011;32278;51.810;4.712;2022-10-16T16:59:29;9.02;;;2.17;;
46551;SDS011;32278;51.810;4.712;2022-10-16T17:01:57;10.07;;;1.98;;
46551;SDS011;32278;51.810;4.712;2022-10-16T17:04:26;6.40;;;1.50;;
46551;SDS011;32278;51.810;4.712;2022-10-16T17:06:55;8.60;;;1.83;;
46551;SDS011;32278;51.810;4.712;2022-10-16T17:09:21;10.75;;;3.05;;
46551;SDS011;32278;51.810;4.712;2022-10-16T17:11:47;10.82;;;3.13;;
46551;SDS011;32278;51.810;4.712;2022-10-16T17:14:13;8.90;;;2.35;;